aviador You're here:

K1P1 Decoded Metar

PLYMOUTH in NH, USA
Report Time2017-11-24 19:55:00
UTC Time2017-11-24 20:15:23
Flight Rules vfr VFR
WindCalm
Visibility9999 m
Phenomena:N/A
Clouds:N/A
Expected CloudBase > 3,200 ft AGL from Temp-Dew spread
CeilingNone
Temp06°C (ISA -8)
Dew Point-2°C (57% RH)
AAT3.8°C
QNH1012 hPa
Density Alt-348 ft
Elevation505 ft
Report Wrong Elevation
Raw Report
METAR K1P1 241955Z AUTO 00000KT 10SM CLR 06/M02 A2989 RMK AO2 T00581020=

Extra information for K1P1:More info

Metar Taf Metar & Taf Last 4 Metars F.Rules Stats Wind Profile Meteogram Temp Stats Airport Information Weather charts Add Link Nearby VenuesMetar ALERT Operation Metar Decoded Social comments

AIRNAV info for K1P1